Archival Weather

Republic

Farmingdale, New York (KFRG)

Report from: Saturday, January 27, 2024 11:04 AM EST
Current time: Monday, June 17, 2024 2:21 AM EDT

Current weather – Weather history – Daily summaries
Weather forecast

Temperature7.2°C (45.0°F)
Wind chill5.1°C (41.2°F)
Dew point3.9°C (39.0°F)
Winds 6 kts (3.1 m/s, 6.9 mph) Northeast (40°)
Visibility10 mi. (16.1 km)
Clouds Scattered clouds 1,200 ft. (366 m)
Ceiling: Overcast 2,900 ft. (884 m)
Altimeter30.23 in.Hg (1024 mB)
Relative humidity80 %
Density altitude-1,174 ft. (-358 m)
Remarks Automated weather observing station without precipitation discriminator
Flight conditions Marginal Visual Meteorological Conditions
Raw dataKFRG 271604Z 04006KT 10SM SCT012 OVC029 07/04 A3023 RMK AO1 T00720039
An error has occurred. This application may no longer respond until reloaded. Reload 🗙